createdAt,value
2018-04-16T00:00:03.118Z,12
2018-04-16T00:00:15.366Z,12
2018-04-16T00:00:27.581Z,12
2018-04-16T00:00:39.868Z,12
2018-04-16T00:00:52.096Z,12
2018-04-16T00:01:04.274Z,12
2018-04-16T00:01:16.459Z,12
2018-04-16T00:01:28.653Z,12
2018-04-16T00:01:40.825Z,12
2018-04-16T00:01:52.997Z,12
2018-04-16T00:02:05.195Z,12
2018-04-16T00:02:17.378Z,12
2018-04-16T00:02:29.537Z,30
2018-04-16T00:02:41.719Z,360
2018-04-16T00:02:53.908Z,5
2018-04-16T00:03:06.092Z,11
2018-04-16T00:03:18.263Z,11
2018-04-16T00:03:30.476Z,11
2018-04-16T00:03:42.651Z,11
2018-04-16T00:03:54.809Z,11
2018-04-16T00:04:06.998Z,28
2018-04-16T00:04:19.167Z,22
2018-04-16T00:04:31.453Z,360
2018-04-16T00:04:43.625Z,5
2018-04-16T00:04:55.795Z,5
2018-04-16T00:05:07.970Z,18
2018-04-16T00:05:20.129Z,18
2018-04-16T00:05:32.359Z,18
2018-04-16T00:05:44.535Z,11
2018-04-16T00:05:56.967Z,10
2018-04-16T00:06:09.197Z,5
2018-04-16T00:06:21.417Z,5
2018-04-16T00:06:33.607Z,312
2018-04-16T00:06:45.754Z,319
2018-04-16T00:06:57.925Z,26
2018-04-16T00:07:10.088Z,11
2018-04-16T00:07:22.276Z,15
2018-04-16T00:07:34.431Z,24
2018-04-16T00:07:46.588Z,24
2018-04-16T00:07:58.744Z,24
2018-04-16T00:08:10.904Z,24
2018-04-16T00:08:23.075Z,24
2018-04-16T00:08:35.250Z,350
2018-04-16T00:08:47.431Z,30
2018-04-16T00:08:59.649Z,5
2018-04-16T00:09:11.817Z,13
2018-04-16T00:09:24.029Z,347
2018-04-16T00:09:36.190Z,5
2018-04-16T00:09:48.357Z,360
2018-04-16T00:10:00.528Z,340
2018-04-16T00:10:12.869Z,344
2018-04-16T00:10:25.062Z,345
2018-04-16T00:10:37.240Z,360
2018-04-16T00:10:49.419Z,20
2018-04-16T00:11:01.577Z,20
2018-04-16T00:11:13.743Z,20
2018-04-16T00:11:25.915Z,24
2018-04-16T00:11:38.078Z,24
2018-04-16T00:11:50.241Z,24
2018-04-16T00:12:02.409Z,350
2018-04-16T00:12:14.629Z,333
2018-04-16T00:12:26.786Z,344
2018-04-16T00:12:38.955Z,346
2018-04-16T00:12:51.112Z,5
2018-04-16T00:13:03.304Z,5
2018-04-16T00:13:15.465Z,5
2018-04-16T00:13:27.857Z,23
2018-04-16T00:13:40.246Z,23
2018-04-16T00:13:52.402Z,23
2018-04-16T00:14:04.568Z,23
2018-04-16T00:14:16.731Z,23
2018-04-16T00:14:28.906Z,23
2018-04-16T00:14:41.073Z,22
2018-04-16T00:14:53.243Z,5
2018-04-16T00:15:05.430Z,5
2018-04-16T00:15:17.598Z,5
2018-04-16T00:15:29.768Z,5
2018-04-16T00:15:41.949Z,5
2018-04-16T00:15:54.119Z,5
2018-04-16T00:16:06.299Z,5
2018-04-16T00:16:18.451Z,5
2018-04-16T00:16:30.628Z,15
2018-04-16T00:16:42.803Z,16
2018-04-16T00:16:54.956Z,16
2018-04-16T00:17:07.123Z,16
2018-04-16T00:17:19.340Z,16
2018-04-16T00:17:31.516Z,16
2018-04-16T00:17:43.681Z,16
2018-04-16T00:17:55.885Z,16
2018-04-16T00:18:08.191Z,16
2018-04-16T00:18:20.365Z,16
2018-04-16T00:18:32.778Z,16
2018-04-16T00:18:44.968Z,16
2018-04-16T00:18:57.132Z,16
2018-04-16T00:19:09.329Z,16
2018-04-16T00:19:21.494Z,16
2018-04-16T00:19:33.669Z,16
2018-04-16T00:19:45.850Z,16
2018-04-16T00:19:58.012Z,16
2018-04-16T00:20:10.164Z,16
2018-04-16T00:20:22.345Z,16
2018-04-16T00:20:34.505Z,16
2018-04-16T00:20:46.667Z,16
2018-04-16T00:20:58.829Z,16
2018-04-16T00:21:10.991Z,16
2018-04-16T00:21:23.149Z,16
2018-04-16T00:21:35.337Z,16
2018-04-16T00:21:47.688Z,16
2018-04-16T00:21:59.874Z,16
2018-04-16T00:22:12.040Z,16
2018-04-16T00:22:24.213Z,16
2018-04-16T00:22:36.428Z,16
2018-04-16T00:22:48.584Z,16
2018-04-16T00:23:00.754Z,16
2018-04-16T00:23:12.942Z,16
2018-04-16T00:23:25.117Z,16
2018-04-16T00:23:37.287Z,16
2018-04-16T00:23:49.448Z,26
2018-04-16T00:24:01.603Z,15
2018-04-16T00:24:13.866Z,15
2018-04-16T00:24:26.059Z,15
2018-04-16T00:24:38.217Z,15
2018-04-16T00:24:50.406Z,15
2018-04-16T00:25:02.567Z,15
2018-04-16T00:25:14.722Z,15
2018-04-16T00:25:26.970Z,15
2018-04-16T00:25:39.151Z,15
2018-04-16T00:25:51.333Z,15
2018-04-16T00:26:03.494Z,15
2018-04-16T00:26:15.652Z,15
2018-04-16T00:26:27.812Z,15
2018-04-16T00:26:39.979Z,15
2018-04-16T00:26:52.166Z,15
2018-04-16T00:27:04.334Z,15
2018-04-16T00:27:16.495Z,15
2018-04-16T00:27:28.659Z,15
2018-04-16T00:27:40.841Z,15
2018-04-16T00:27:53.010Z,17
2018-04-16T00:28:05.187Z,17
2018-04-16T00:28:17.349Z,17
2018-04-16T00:28:29.514Z,15
2018-04-16T00:28:41.668Z,15
2018-04-16T00:28:53.905Z,15
2018-04-16T00:29:06.076Z,15
2018-04-16T00:29:18.281Z,15
2018-04-16T00:29:30.549Z,15
2018-04-16T00:29:42.721Z,15
2018-04-16T00:29:54.870Z,16
2018-04-16T00:30:07.039Z,16
2018-04-16T00:30:19.199Z,16
2018-04-16T00:30:31.358Z,16
2018-04-16T00:30:43.518Z,16
2018-04-16T00:30:55.685Z,16
2018-04-16T00:31:07.853Z,16
2018-04-16T00:31:20.029Z,16
2018-04-16T00:31:32.180Z,16
2018-04-16T00:31:44.353Z,16
2018-04-16T00:31:56.540Z,16
2018-04-16T00:32:08.693Z,16
2018-04-16T00:32:20.872Z,16
2018-04-16T00:32:33.032Z,16
2018-04-16T00:32:45.174Z,16
2018-04-16T00:32:57.351Z,16
2018-04-16T00:33:09.543Z,16
2018-04-16T00:33:21.719Z,16
2018-04-16T00:33:33.897Z,338
2018-04-16T00:33:46.063Z,319
2018-04-16T00:33:58.233Z,319
2018-04-16T00:34:10.406Z,324
2018-04-16T00:34:22.729Z,322
2018-04-16T00:34:34.897Z,324
2018-04-16T00:34:47.083Z,324
2018-04-16T00:34:59.289Z,324
2018-04-16T00:35:11.487Z,326
2018-04-16T00:35:23.648Z,326
2018-04-16T00:35:35.820Z,326
2018-04-16T00:35:48.058Z,326
2018-04-16T00:36:00.230Z,326
2018-04-16T00:36:12.388Z,5
2018-04-16T00:36:24.552Z,5
2018-04-16T00:36:36.719Z,5
2018-04-16T00:36:48.869Z,11
2018-04-16T00:37:01.020Z,360
2018-04-16T00:37:13.188Z,336
2018-04-16T00:37:25.387Z,337
2018-04-16T00:37:37.555Z,346
2018-04-16T00:37:49.712Z,360
2018-04-16T00:38:01.885Z,9
2018-04-16T00:38:14.085Z,360
2018-04-16T00:38:26.250Z,360
2018-04-16T00:38:38.417Z,360
2018-04-16T00:38:50.602Z,360
2018-04-16T00:39:02.765Z,336
2018-04-16T00:39:14.916Z,340
2018-04-16T00:39:27.138Z,306
2018-04-16T00:39:39.330Z,311
2018-04-16T00:39:51.497Z,311
2018-04-16T00:40:03.691Z,336
2018-04-16T00:40:15.842Z,336
2018-04-16T00:40:28.000Z,336
2018-04-16T00:40:40.173Z,49
2018-04-16T00:40:52.349Z,25
2018-04-16T00:41:04.518Z,14
2018-04-16T00:41:16.709Z,344
2018-04-16T00:41:28.880Z,13
2018-04-16T00:41:41.344Z,32
2018-04-16T00:41:53.504Z,23
2018-04-16T00:42:05.649Z,360
2018-04-16T00:42:17.813Z,345
2018-04-16T00:42:29.991Z,348
2018-04-16T00:42:42.163Z,51
2018-04-16T00:42:54.338Z,19
2018-04-16T00:43:06.502Z,24
2018-04-16T00:43:18.666Z,13
2018-04-16T00:43:30.829Z,13
2018-04-16T00:43:42.991Z,13
2018-04-16T00:43:55.135Z,13
2018-04-16T00:44:07.316Z,13
2018-04-16T00:44:19.476Z,22
2018-04-16T00:44:31.632Z,31
2018-04-16T00:44:43.802Z,41
2018-04-16T00:44:55.956Z,15
2018-04-16T00:45:08.125Z,15
2018-04-16T00:45:20.296Z,28
2018-04-16T00:45:32.460Z,28
2018-04-16T00:45:44.680Z,28
2018-04-16T00:45:56.858Z,9
2018-04-16T00:46:09.035Z,341
2018-04-16T00:46:21.210Z,330
2018-04-16T00:46:33.427Z,346
2018-04-16T00:46:45.604Z,360
2018-04-16T00:46:57.760Z,9
2018-04-16T00:47:09.911Z,11
2018-04-16T00:47:22.081Z,346
2018-04-16T00:47:34.542Z,346
2018-04-16T00:47:46.753Z,346
2018-04-16T00:47:58.910Z,345
2018-04-16T00:48:11.202Z,347
2018-04-16T00:48:23.356Z,347
2018-04-16T00:48:35.506Z,347
2018-04-16T00:48:47.716Z,347
2018-04-16T00:48:59.874Z,355
2018-04-16T00:49:12.056Z,355
2018-04-16T00:49:24.216Z,355
2018-04-16T00:49:36.398Z,355
2018-04-16T00:49:48.792Z,20
2018-04-16T00:50:00.947Z,31
2018-04-16T00:50:13.120Z,355
2018-04-16T00:50:25.283Z,344
2018-04-16T00:50:37.438Z,344
2018-04-16T00:50:49.606Z,344
2018-04-16T00:51:01.769Z,344
2018-04-16T00:51:13.981Z,344
2018-04-16T00:51:26.148Z,348
2018-04-16T00:51:38.313Z,355
2018-04-16T00:51:50.467Z,13
2018-04-16T00:52:02.621Z,355
2018-04-16T00:52:14.813Z,355
2018-04-16T00:52:26.979Z,350
2018-04-16T00:52:39.141Z,17
2018-04-16T00:52:51.294Z,17
2018-04-16T00:53:03.473Z,17
2018-04-16T00:53:16.176Z,345
2018-04-16T00:53:28.350Z,19
2018-04-16T00:53:40.521Z,5
2018-04-16T00:53:52.685Z,5
2018-04-16T00:54:04.861Z,5
2018-04-16T00:54:17.024Z,17
2018-04-16T00:54:29.198Z,360
2018-04-16T00:54:41.461Z,17
2018-04-16T00:54:53.630Z,24
2018-04-16T00:55:05.801Z,24
2018-04-16T00:55:18.034Z,5
2018-04-16T00:55:30.197Z,355
2018-04-16T00:55:42.363Z,355
2018-04-16T00:55:54.535Z,347
2018-04-16T00:56:06.695Z,355
2018-04-16T00:56:18.846Z,351
2018-04-16T00:56:31.071Z,355
2018-04-16T00:56:43.239Z,19
2018-04-16T00:56:55.386Z,26
2018-04-16T00:57:07.559Z,28
2018-04-16T00:57:19.730Z,360
2018-04-16T00:57:31.893Z,355
2018-04-16T00:57:44.061Z,350
2018-04-16T00:57:56.211Z,337
2018-04-16T00:58:08.364Z,355
2018-04-16T00:58:20.508Z,355
2018-04-16T00:58:32.726Z,338
2018-04-16T00:58:44.878Z,301
2018-04-16T00:58:57.059Z,360
2018-04-16T00:59:09.287Z,351
2018-04-16T00:59:21.473Z,355
2018-04-16T00:59:33.691Z,351
2018-04-16T00:59:45.852Z,355
2018-04-16T00:59:58.003Z,335
2018-04-16T01:00:10.195Z,11
2018-04-16T01:00:22.399Z,360
2018-04-16T01:00:34.625Z,355
2018-04-16T01:00:46.836Z,360
2018-04-16T01:00:59.047Z,360
2018-04-16T01:01:11.223Z,349
2018-04-16T01:01:23.413Z,350
2018-04-16T01:01:35.589Z,10
2018-04-16T01:01:47.765Z,360
2018-04-16T01:01:59.932Z,16
2018-04-16T01:02:12.113Z,15
2018-04-16T01:02:24.272Z,21
2018-04-16T01:02:36.453Z,350
2018-04-16T01:02:48.621Z,355
2018-04-16T01:03:00.790Z,360
2018-04-16T01:03:12.959Z,335
2018-04-16T01:03:25.126Z,355
2018-04-16T01:03:37.291Z,343
2018-04-16T01:03:49.480Z,313
2018-04-16T01:04:01.659Z,355
2018-04-16T01:04:13.857Z,337
2018-04-16T01:04:26.037Z,350
2018-04-16T01:04:38.212Z,338
2018-04-16T01:04:50.395Z,343
2018-04-16T01:05:02.631Z,341
2018-04-16T01:05:14.822Z,344
2018-04-16T01:05:27.066Z,355
2018-04-16T01:05:39.265Z,15
2018-04-16T01:05:51.430Z,5
2018-04-16T01:06:03.576Z,355
2018-04-16T01:06:15.749Z,341
2018-04-16T01:06:27.920Z,10
2018-04-16T01:06:40.095Z,5
2018-04-16T01:06:52.253Z,360
2018-04-16T01:07:04.420Z,355
2018-04-16T01:07:16.656Z,355
2018-04-16T01:07:28.862Z,34
2018-04-16T01:07:41.031Z,349
2018-04-16T01:07:53.186Z,360
2018-04-16T01:08:05.374Z,329
2018-04-16T01:08:17.578Z,329
2018-04-16T01:08:29.741Z,334
2018-04-16T01:08:41.943Z,346
2018-04-16T01:08:54.098Z,5
2018-04-16T01:09:06.261Z,337
2018-04-16T01:09:18.440Z,13
2018-04-16T01:09:30.616Z,360
2018-04-16T01:09:42.821Z,5
2018-04-16T01:09:54.995Z,360
2018-04-16T01:10:07.179Z,355
2018-04-16T01:10:19.341Z,355
2018-04-16T01:10:31.596Z,14
2018-04-16T01:10:43.762Z,9
2018-04-16T01:10:55.914Z,12
2018-04-16T01:11:08.115Z,347
2018-04-16T01:11:20.271Z,355
2018-04-16T01:11:32.454Z,355
2018-04-16T01:11:44.648Z,355
2018-04-16T01:11:56.809Z,355
2018-04-16T01:12:08.976Z,355
2018-04-16T01:12:21.127Z,355
2018-04-16T01:12:33.291Z,355
2018-04-16T01:12:45.455Z,355
2018-04-16T01:12:57.609Z,355
2018-04-16T01:13:09.789Z,37
2018-04-16T01:13:22.206Z,10
2018-04-16T01:13:34.613Z,360
2018-04-16T01:13:46.778Z,349
2018-04-16T01:13:58.936Z,349
2018-04-16T01:14:11.140Z,349
2018-04-16T01:14:23.293Z,349
2018-04-16T01:14:35.451Z,349
2018-04-16T01:14:47.666Z,10
2018-04-16T01:14:59.870Z,11
2018-04-16T01:15:12.034Z,355
2018-04-16T01:15:24.208Z,344
2018-04-16T01:15:36.400Z,340
2018-04-16T01:15:48.573Z,333
2018-04-16T01:16:00.772Z,333
2018-04-16T01:16:12.997Z,333
2018-04-16T01:16:25.150Z,355
2018-04-16T01:16:37.315Z,351
2018-04-16T01:16:49.471Z,351
2018-04-16T01:17:01.639Z,351
2018-04-16T01:17:13.851Z,360
2018-04-16T01:17:26.019Z,360
2018-04-16T01:17:38.204Z,5
2018-04-16T01:17:50.351Z,9
2018-04-16T01:18:02.518Z,338
2018-04-16T01:18:14.889Z,337
2018-04-16T01:18:27.281Z,9
2018-04-16T01:18:39.441Z,29
2018-04-16T01:18:51.607Z,5
2018-04-16T01:19:03.775Z,12
2018-04-16T01:19:15.945Z,17
2018-04-16T01:19:28.153Z,19
2018-04-16T01:19:40.327Z,19
2018-04-16T01:19:52.532Z,5
2018-04-16T01:20:04.708Z,19
2018-04-16T01:20:16.883Z,351
2018-04-16T01:20:29.045Z,355
2018-04-16T01:20:41.208Z,348
2018-04-16T01:20:53.361Z,342
2018-04-16T01:21:05.501Z,344
2018-04-16T01:21:17.654Z,19
2018-04-16T01:21:29.822Z,19
2018-04-16T01:21:42.163Z,19
2018-04-16T01:21:54.316Z,5
2018-04-16T01:22:06.511Z,49
2018-04-16T01:22:18.672Z,49
2018-04-16T01:22:30.871Z,22
2018-04-16T01:22:43.058Z,22
2018-04-16T01:22:55.217Z,22
2018-04-16T01:23:07.382Z,47
2018-04-16T01:23:19.546Z,36
2018-04-16T01:23:31.751Z,36
2018-04-16T01:23:43.905Z,10
2018-04-16T01:23:56.065Z,11
2018-04-16T01:24:08.244Z,10
2018-04-16T01:24:20.415Z,32
2018-04-16T01:24:32.595Z,29
2018-04-16T01:24:44.769Z,26
2018-04-16T01:24:56.931Z,19
2018-04-16T01:25:09.110Z,18
2018-04-16T01:25:21.310Z,32
2018-04-16T01:25:33.520Z,25
2018-04-16T01:25:45.721Z,25
2018-04-16T01:25:57.886Z,25
2018-04-16T01:26:10.077Z,5
2018-04-16T01:26:22.246Z,30
2018-04-16T01:26:34.453Z,30
2018-04-16T01:26:46.619Z,39
2018-04-16T01:26:58.777Z,36
2018-04-16T01:27:10.937Z,34
2018-04-16T01:27:23.322Z,34
2018-04-16T01:27:35.484Z,34
2018-04-16T01:27:47.671Z,61
2018-04-16T01:27:59.860Z,61
2018-04-16T01:28:12.044Z,42
2018-04-16T01:28:24.218Z,42
2018-04-16T01:28:36.434Z,43
2018-04-16T01:28:48.645Z,43
2018-04-16T01:29:00.840Z,43
2018-04-16T01:29:13.017Z,43
2018-04-16T01:29:25.184Z,43
2018-04-16T01:29:37.348Z,43
2018-04-16T01:29:49.509Z,43
2018-04-16T01:30:01.671Z,43
2018-04-16T01:30:13.841Z,43
2018-04-16T01:30:26.005Z,43
2018-04-16T01:30:38.168Z,43
2018-04-16T01:30:50.330Z,43
2018-04-16T01:31:02.475Z,43
2018-04-16T01:31:14.641Z,39
2018-04-16T01:31:26.818Z,28
2018-04-16T01:31:39.036Z,28
2018-04-16T01:31:51.202Z,28
2018-04-16T01:32:03.355Z,28
2018-04-16T01:32:15.584Z,28
2018-04-16T01:32:27.730Z,29
2018-04-16T01:32:39.911Z,31
2018-04-16T01:32:52.104Z,31
2018-04-16T01:33:04.265Z,31
2018-04-16T01:33:16.417Z,31
2018-04-16T01:33:28.581Z,31
2018-04-16T01:33:40.743Z,34
2018-04-16T01:33:52.903Z,34
2018-04-16T01:34:05.075Z,36
2018-04-16T01:34:17.397Z,36
2018-04-16T01:34:29.566Z,36
2018-04-16T01:34:41.738Z,36
2018-04-16T01:34:53.896Z,35
2018-04-16T01:35:06.052Z,17
2018-04-16T01:35:18.222Z,9
2018-04-16T01:35:30.387Z,355
2018-04-16T01:35:42.543Z,355
2018-04-16T01:35:54.683Z,360
2018-04-16T01:36:06.843Z,344
2018-04-16T01:36:19.012Z,21
2018-04-16T01:36:31.177Z,21
2018-04-16T01:36:43.362Z,21
2018-04-16T01:36:55.538Z,17
2018-04-16T01:37:07.713Z,5
2018-04-16T01:37:19.952Z,360
2018-04-16T01:37:32.141Z,34
2018-04-16T01:37:44.329Z,9
2018-04-16T01:37:56.558Z,9
2018-04-16T01:38:08.732Z,9
2018-04-16T01:38:20.880Z,5
2018-04-16T01:38:33.050Z,346
2018-04-16T01:38:45.217Z,350
2018-04-16T01:38:57.379Z,350
2018-04-16T01:39:09.711Z,350
2018-04-16T01:39:21.975Z,350
2018-04-16T01:39:34.296Z,350
2018-04-16T01:39:46.479Z,350
2018-04-16T01:39:58.686Z,347
2018-04-16T01:40:10.861Z,347
2018-04-16T01:40:23.051Z,5
2018-04-16T01:40:35.216Z,17
2018-04-16T01:40:47.379Z,341
2018-04-16T01:40:59.546Z,346
2018-04-16T01:41:11.861Z,360
2018-04-16T01:41:24.016Z,5
2018-04-16T01:41:36.174Z,5
2018-04-16T01:41:48.370Z,5
2018-04-16T01:42:00.538Z,5
2018-04-16T01:42:12.730Z,5
2018-04-16T01:42:24.915Z,5
2018-04-16T01:42:37.075Z,355
2018-04-16T01:42:49.226Z,355
2018-04-16T01:43:01.377Z,355
2018-04-16T01:43:13.579Z,355
2018-04-16T01:43:25.732Z,360
2018-04-16T01:43:37.909Z,355
2018-04-16T01:43:50.102Z,355
2018-04-16T01:44:02.307Z,355
2018-04-16T01:44:14.455Z,355
2018-04-16T01:44:26.598Z,360
2018-04-16T01:44:38.767Z,360
2018-04-16T01:44:50.943Z,360
2018-04-16T01:45:03.125Z,360
2018-04-16T01:45:15.279Z,360
2018-04-16T01:45:27.424Z,347
2018-04-16T01:45:39.585Z,347
2018-04-16T01:45:51.749Z,347
2018-04-16T01:46:03.912Z,347
2018-04-16T01:46:16.128Z,347
2018-04-16T01:46:28.297Z,347
2018-04-16T01:46:40.484Z,347
2018-04-16T01:46:52.679Z,347
2018-04-16T01:47:04.849Z,347
2018-04-16T01:47:17.006Z,347
2018-04-16T01:47:29.179Z,347
2018-04-16T01:47:41.322Z,347
2018-04-16T01:47:53.476Z,347
2018-04-16T01:48:05.761Z,347
2018-04-16T01:48:17.921Z,347
2018-04-16T01:48:30.099Z,347
2018-04-16T01:48:42.281Z,340
2018-04-16T01:48:54.445Z,340
2018-04-16T01:49:06.642Z,340
2018-04-16T01:49:18.811Z,340
2018-04-16T01:49:31.044Z,340
2018-04-16T01:49:43.316Z,340
2018-04-16T01:49:55.473Z,341
2018-04-16T01:50:07.667Z,343
2018-04-16T01:50:19.884Z,343
2018-04-16T01:50:32.058Z,301
2018-04-16T01:50:44.221Z,332
2018-04-16T01:50:56.396Z,331
2018-04-16T01:51:08.654Z,331
2018-04-16T01:51:20.849Z,331
2018-04-16T01:51:32.998Z,331
2018-04-16T01:51:45.186Z,331
2018-04-16T01:51:57.344Z,331
2018-04-16T01:52:09.517Z,331
2018-04-16T01:52:21.666Z,338
2018-04-16T01:52:33.853Z,338
2018-04-16T01:52:46.021Z,338
2018-04-16T01:52:58.195Z,346
2018-04-16T01:53:10.350Z,355
2018-04-16T01:53:22.542Z,355
2018-04-16T01:53:34.717Z,336
2018-04-16T01:53:46.878Z,312
2018-04-16T01:53:59.045Z,315
2018-04-16T01:54:11.205Z,329
2018-04-16T01:54:23.366Z,360
2018-04-16T01:54:35.548Z,333
2018-04-16T01:54:47.707Z,332
2018-04-16T01:54:59.871Z,323
2018-04-16T01:55:12.056Z,344
2018-04-16T01:55:24.228Z,325
2018-04-16T01:55:36.405Z,360
2018-04-16T01:55:48.590Z,343
2018-04-16T01:56:00.755Z,344
2018-04-16T01:56:13.135Z,16
2018-04-16T01:56:25.296Z,19
2018-04-16T01:56:37.480Z,15
2018-04-16T01:56:49.623Z,15
2018-04-16T01:57:01.784Z,360
2018-04-16T01:57:13.971Z,14
2018-04-16T01:57:26.140Z,5
2018-04-16T01:57:38.323Z,5
2018-04-16T01:57:50.496Z,5
2018-04-16T01:58:02.696Z,360
2018-04-16T01:58:14.856Z,360
2018-04-16T01:58:27.013Z,360
2018-04-16T01:58:39.184Z,360
2018-04-16T01:58:51.341Z,360
2018-04-16T01:59:03.523Z,355
2018-04-16T01:59:15.680Z,355
2018-04-16T01:59:27.837Z,355
2018-04-16T01:59:39.998Z,346
2018-04-16T01:59:52.142Z,346
2018-04-16T02:00:04.304Z,346
2018-04-16T02:00:16.511Z,346
2018-04-16T02:00:28.707Z,346
2018-04-16T02:00:40.910Z,22
2018-04-16T02:00:53.128Z,21
2018-04-16T02:01:05.376Z,21
2018-04-16T02:01:17.644Z,360
2018-04-16T02:01:29.813Z,360
2018-04-16T02:01:41.997Z,360
2018-04-16T02:01:54.157Z,360
2018-04-16T02:02:06.322Z,360
2018-04-16T02:02:18.515Z,360
2018-04-16T02:02:30.695Z,360
2018-04-16T02:02:42.931Z,360
2018-04-16T02:02:55.080Z,360
2018-04-16T02:03:07.278Z,360
2018-04-16T02:03:19.503Z,360
2018-04-16T02:03:31.690Z,5
2018-04-16T02:03:43.887Z,5
2018-04-16T02:03:56.074Z,5
2018-04-16T02:04:08.260Z,5
2018-04-16T02:04:20.450Z,355
2018-04-16T02:04:32.621Z,339
2018-04-16T02:04:44.780Z,21
2018-04-16T02:04:56.962Z,5
2018-04-16T02:05:09.118Z,15
2018-04-16T02:05:21.316Z,5
2018-04-16T02:05:33.473Z,17
2018-04-16T02:05:45.672Z,18
2018-04-16T02:05:57.868Z,355
2018-04-16T02:06:10.117Z,355
2018-04-16T02:06:22.271Z,339
2018-04-16T02:06:34.438Z,344
2018-04-16T02:06:46.597Z,344
2018-04-16T02:06:58.762Z,344
2018-04-16T02:07:10.945Z,346
2018-04-16T02:07:23.119Z,5
2018-04-16T02:07:35.264Z,5
2018-04-16T02:07:47.430Z,5
2018-04-16T02:07:59.606Z,5
2018-04-16T02:08:11.787Z,331
2018-04-16T02:08:23.965Z,350
2018-04-16T02:08:36.118Z,348
2018-04-16T02:08:48.315Z,5
2018-04-16T02:09:00.495Z,349
2018-04-16T02:09:12.674Z,326
2018-04-16T02:09:24.862Z,325
2018-04-16T02:09:37.017Z,326
2018-04-16T02:09:49.171Z,319
2018-04-16T02:10:01.360Z,335
2018-04-16T02:10:13.547Z,329
2018-04-16T02:10:25.732Z,355
2018-04-16T02:10:37.901Z,335
2018-04-16T02:10:50.080Z,346
2018-04-16T02:11:02.250Z,336
2018-04-16T02:11:14.640Z,336
2018-04-16T02:11:26.826Z,15
2018-04-16T02:11:39.457Z,17
2018-04-16T02:11:51.623Z,355
2018-04-16T02:12:03.790Z,11
2018-04-16T02:12:15.956Z,19
2018-04-16T02:12:28.111Z,35
2018-04-16T02:12:40.283Z,35
2018-04-16T02:12:52.444Z,13
2018-04-16T02:13:04.637Z,19
2018-04-16T02:13:16.987Z,19
2018-04-16T02:13:29.130Z,11
2018-04-16T02:13:41.451Z,24
2018-04-16T02:13:53.621Z,24
2018-04-16T02:14:05.805Z,24
2018-04-16T02:14:17.975Z,25
2018-04-16T02:14:30.136Z,9
2018-04-16T02:14:42.321Z,19
2018-04-16T02:14:54.637Z,19
2018-04-16T02:15:06.804Z,16
2018-04-16T02:15:18.974Z,16
2018-04-16T02:15:31.149Z,16
2018-04-16T02:15:43.324Z,16
2018-04-16T02:15:55.506Z,15
2018-04-16T02:16:07.661Z,360
2018-04-16T02:16:19.809Z,360
2018-04-16T02:16:31.975Z,360
2018-04-16T02:16:44.139Z,337
2018-04-16T02:16:56.321Z,341
2018-04-16T02:17:08.488Z,18
2018-04-16T02:17:20.799Z,18
2018-04-16T02:17:32.951Z,18
2018-04-16T02:17:45.108Z,17
2018-04-16T02:17:57.264Z,17
2018-04-16T02:18:09.630Z,5
2018-04-16T02:18:21.783Z,11
2018-04-16T02:18:34.119Z,12
2018-04-16T02:18:46.291Z,12
2018-04-16T02:18:58.515Z,355
2018-04-16T02:19:10.698Z,355
2018-04-16T02:19:22.844Z,360
2018-04-16T02:19:35.019Z,333
2018-04-16T02:19:47.194Z,333
2018-04-16T02:19:59.385Z,333
2018-04-16T02:20:11.548Z,333
2018-04-16T02:20:23.696Z,338
2018-04-16T02:20:35.888Z,338
2018-04-16T02:20:48.038Z,333
2018-04-16T02:21:00.191Z,360
2018-04-16T02:21:12.446Z,348
2018-04-16T02:21:24.670Z,5
2018-04-16T02:21:36.858Z,344
2018-04-16T02:21:49.193Z,350
2018-04-16T02:22:01.368Z,5
2018-04-16T02:22:13.615Z,355
2018-04-16T02:22:25.811Z,346
2018-04-16T02:22:38.015Z,360
2018-04-16T02:22:50.192Z,333
2018-04-16T02:23:02.381Z,315
2018-04-16T02:23:14.548Z,342
2018-04-16T02:23:26.722Z,5
2018-04-16T02:23:38.880Z,22
2018-04-16T02:23:51.025Z,341
2018-04-16T02:24:03.197Z,13
2018-04-16T02:24:15.371Z,5
2018-04-16T02:24:27.530Z,355
2018-04-16T02:24:39.707Z,355
2018-04-16T02:24:51.917Z,355
2018-04-16T02:25:04.106Z,350
2018-04-16T02:25:16.273Z,10
2018-04-16T02:25:28.434Z,360
2018-04-16T02:25:40.604Z,28
2018-04-16T02:25:53.028Z,343
2018-04-16T02:26:05.202Z,331
2018-04-16T02:26:17.377Z,320
2018-04-16T02:26:29.533Z,360
2018-04-16T02:26:41.702Z,355
2018-04-16T02:26:53.877Z,350
2018-04-16T02:27:06.060Z,350
2018-04-16T02:27:18.231Z,5
2018-04-16T02:27:30.430Z,337
2018-04-16T02:27:42.594Z,325
2018-04-16T02:27:54.757Z,322
2018-04-16T02:28:06.925Z,327
2018-04-16T02:28:19.096Z,329
2018-04-16T02:28:31.275Z,330
2018-04-16T02:28:43.447Z,360
2018-04-16T02:28:55.647Z,9
2018-04-16T02:29:07.819Z,25
2018-04-16T02:29:19.983Z,355
2018-04-16T02:29:32.148Z,11
2018-04-16T02:29:44.327Z,34
2018-04-16T02:29:56.501Z,19
2018-04-16T02:30:08.663Z,355
2018-04-16T02:30:20.834Z,348
2018-04-16T02:30:33.051Z,360
2018-04-16T02:30:45.325Z,24
2018-04-16T02:30:57.511Z,355
2018-04-16T02:31:09.700Z,5
2018-04-16T02:31:21.889Z,13
2018-04-16T02:31:34.105Z,355
2018-04-16T02:31:46.432Z,331
2018-04-16T02:31:58.637Z,349
2018-04-16T02:32:10.853Z,355
2018-04-16T02:32:23.015Z,355
2018-04-16T02:32:35.188Z,344
2018-04-16T02:32:47.360Z,323
2018-04-16T02:32:59.533Z,13
2018-04-16T02:33:11.790Z,336
2018-04-16T02:33:24.001Z,340
2018-04-16T02:33:36.189Z,355
2018-04-16T02:33:48.390Z,340
2018-04-16T02:34:00.606Z,32
2018-04-16T02:34:12.835Z,13
2018-04-16T02:34:25.212Z,5
2018-04-16T02:34:37.394Z,19
2018-04-16T02:34:49.559Z,25
2018-04-16T02:35:01.735Z,355
2018-04-16T02:35:13.919Z,360
2018-04-16T02:35:26.141Z,20
2018-04-16T02:35:38.330Z,22
2018-04-16T02:35:50.517Z,9
2018-04-16T02:36:02.721Z,5
2018-04-16T02:36:14.942Z,351
2018-04-16T02:36:27.225Z,11
2018-04-16T02:36:39.392Z,5
2018-04-16T02:36:51.754Z,360
2018-04-16T02:37:03.941Z,350
2018-04-16T02:37:16.135Z,350
2018-04-16T02:37:28.302Z,33
2018-04-16T02:37:40.483Z,17
2018-04-16T02:37:52.662Z,33
2018-04-16T02:38:04.849Z,13
2018-04-16T02:38:17.038Z,5
2018-04-16T02:38:29.221Z,355
2018-04-16T02:38:41.415Z,347
2018-04-16T02:38:53.603Z,343
2018-04-16T02:39:05.781Z,334
2018-04-16T02:39:17.993Z,349
2018-04-16T02:39:30.182Z,348
2018-04-16T02:39:42.354Z,348
2018-04-16T02:39:54.509Z,355
2018-04-16T02:40:06.684Z,360
2018-04-16T02:40:18.858Z,360
2018-04-16T02:40:31.026Z,360
2018-04-16T02:40:43.226Z,360
2018-04-16T02:40:55.438Z,360
2018-04-16T02:41:07.612Z,360
2018-04-16T02:41:19.883Z,360
2018-04-16T02:41:32.082Z,360
2018-04-16T02:41:44.380Z,321
2018-04-16T02:41:56.570Z,333
2018-04-16T02:42:08.766Z,348
2018-04-16T02:42:20.942Z,348
2018-04-16T02:42:33.095Z,348
2018-04-16T02:42:45.276Z,348
2018-04-16T02:42:57.476Z,348
2018-04-16T02:43:09.667Z,348
2018-04-16T02:43:21.863Z,348
2018-04-16T02:43:34.054Z,348
2018-04-16T02:43:46.267Z,348
2018-04-16T02:43:58.460Z,5
2018-04-16T02:44:10.659Z,5
2018-04-16T02:44:22.833Z,5
2018-04-16T02:44:35.005Z,5
2018-04-16T02:44:47.173Z,9
2018-04-16T02:44:59.356Z,9
2018-04-16T02:45:11.543Z,9
2018-04-16T02:45:23.728Z,9
2018-04-16T02:45:35.899Z,9
2018-04-16T02:45:48.065Z,9
2018-04-16T02:46:00.252Z,9
2018-04-16T02:46:12.448Z,11
2018-04-16T02:46:24.651Z,11
2018-04-16T02:46:36.859Z,11
2018-04-16T02:46:49.148Z,11
2018-04-16T02:47:01.419Z,11
2018-04-16T02:47:13.588Z,11
2018-04-16T02:47:25.798Z,11
2018-04-16T02:47:37.987Z,11
2018-04-16T02:47:50.186Z,11
2018-04-16T02:48:02.511Z,11
2018-04-16T02:48:14.720Z,11
2018-04-16T02:48:26.922Z,11
2018-04-16T02:48:39.111Z,37
2018-04-16T02:48:51.291Z,37
2018-04-16T02:49:03.476Z,347
2018-04-16T02:49:15.659Z,347
2018-04-16T02:49:27.854Z,347
2018-04-16T02:49:40.040Z,347
2018-04-16T02:49:52.339Z,347
2018-04-16T02:50:04.579Z,347
2018-04-16T02:50:16.752Z,347
2018-04-16T02:50:28.953Z,347
2018-04-16T02:50:41.159Z,347
2018-04-16T02:50:53.372Z,347
2018-04-16T02:51:05.564Z,347
2018-04-16T02:51:17.773Z,348
2018-04-16T02:51:29.968Z,348